Wednesday, April 24, 2019, 1:57 PM EDT
Back to Local

KEEN, Keene, Dillant-hopkins Airport

Location: Keene, NH, United States Lat: 42.9
Local Time: 1:57 PM EDT (17:57 GMT) Lon: -72.267
Time Zone: US/Eastern Elev: 488 ft

Show me the last for .
Show Decoded

2019-04-24 12:56 METAR KEEN 241656Z AUTO 31010G22KT 10SM OVC043 12/03 A2973 RMK AO2 SLP088
                 T01220033 PNO $ =
2019-04-24 11:56 METAR KEEN 241556Z AUTO 27009G15KT 10SM FEW047 13/04 A2973 RMK AO2 SLP087
                 T01280039 PNO $ =
2019-04-24 10:56 METAR KEEN 241456Z AUTO 30013G22KT 10SM BKN043 12/02 A2971 RMK AO2 SLP080 6////
                 T01220022 50007 PNO $ =
2019-04-24 09:56 METAR KEEN 241356Z AUTO 28012G18KT 250V310 10SM BKN043 12/03 A2972 RMK AO2
                 SLP083 T01220028 PNO $ =
2019-04-24 08:56 METAR KEEN 241256Z AUTO 33007KT 270V350 10SM OVC037 11/05 A2971 RMK AO2 SLP079
                 T01110050 PNO $ =
2019-04-24 07:56 METAR KEEN 241156Z AUTO 32006KT 10SM OVC035 12/06 A2969 RMK AO2 SLP072 6////
                 7//// T01170061 10122 20111 53010 PNO $ =
2019-04-24 07:40 METAR KEEN 241140Z AUTO 30007G14KT 10SM FEW024 BKN035 OVC055 12/07 A2969 RMK AO2
                 PNO $ =
2019-04-24 07:32 METAR KEEN 241132Z AUTO 30010G14KT 10SM FEW024 BKN028 OVC050 12/08 A2968 RMK AO2
                 PNO $ =
2019-04-24 06:56 METAR KEEN 241056Z AUTO 00000KT 10SM FEW037 BKN048 OVC060 12/10 A2968 RMK AO2
                 SLP068 T01170100 PNO $ =
2019-04-24 06:44 METAR KEEN 241044Z AUTO 00000KT 7SM SCT009 SCT038 OVC046 11/11 A2967 RMK AO2 PNO
                 $ =
2019-04-24 05:56 METAR KEEN 240956Z AUTO 19004KT 10SM OVC009 11/11 A2966 RMK AO2 SLP061 T01110106
                 PNO $ =
2019-04-24 04:56 METAR KEEN 240856Z AUTO 17003KT 10SM OVC009 12/11 A2966 RMK AO2 SLP060 6////
                 T01170106 56014 PNO $ =
2019-04-24 03:56 METAR KEEN 240756Z AUTO 15004KT 10SM OVC013 11/11 A2967 RMK AO2 SLP063 T01110106
                 PNO $ =
2019-04-24 02:56 METAR KEEN 240656Z AUTO 16007KT 10SM OVC013 12/11 A2968 RMK AO2 SLP067 T01220106
                 PNO $ =
2019-04-24 01:56 METAR KEEN 240556Z AUTO 16003KT 10SM BKN013 OVC050 12/11 A2970 RMK AO2 RAE49
                 SLP076 6//// T01170106 10161 20117 56024 PNO $ =
2019-04-24 01:49 METAR KEEN 240549Z AUTO 14003KT 10SM BKN013 OVC055 12/11 A2969 RMK AO2 RAE49 PNO
                 $ =
2019-04-24 01:15 METAR KEEN 240515Z AUTO 15003KT 10SM -RA SCT013 OVC060 12/11 A2970 RMK AO2 PNO $
                 =
2019-04-24 00:56 METAR KEEN 240456Z AUTO 15004KT 10SM -RA BKN013 OVC060 12/11 A2972 RMK AO2
                 SLP083 T01220106 402110111 PNO $ =
2019-04-24 00:33 METAR KEEN 240433Z AUTO 15006KT 9SM -RA BKN015 BKN020 OVC080 12/11 A2972 RMK AO2
                 PNO $ =
2019-04-23 23:56 METAR KEEN 240356Z AUTO 17007KT 10SM -RA FEW047 SCT055 OVC075 13/11 A2974 RMK
                 AO2 SLP091 T01280111 PNO $ =
2019-04-23 22:56 METAR KEEN 240256Z AUTO 00000KT 9SM -RA OVC085 13/11 A2977 RMK AO2 SLP101 6////
                 T01280111 58004 PNO $ =
2019-04-23 21:56 METAR KEEN 240156Z AUTO 15004KT 10SM -RA FEW070 OVC095 14/11 A2978 RMK AO2 RAB44
                 SLP103 T01390111 PNO $ =
2019-04-23 20:56 METAR KEEN 240056Z AUTO 16005KT 10SM BKN100 15/11 A2979 RMK AO2 SLP106 T01500106
                 PNO $ =
2019-04-23 19:56 METAR KEEN 232356Z AUTO 15007KT 10SM BKN120 16/11 A2978 RMK AO2 SLP104 6////
                 T01610106 10211 20161 55008 PNO $ =
2019-04-23 18:56 METAR KEEN 232256Z AUTO 13007KT 10SM CLR 18/12 A2978 RMK AO2 SLP103 T01830117
                 PNO $ =
2019-04-23 17:56 METAR KEEN 232156Z AUTO 12008KT 9SM CLR 21/12 A2979 RMK AO2 SLP107 T02060117 PNO
                 $ =
2019-04-23 16:56 METAR KEEN 232056Z AUTO 15005KT 9SM CLR 21/11 A2981 RMK AO2 SLP111 6////
                 T02060106 56026 PNO $ =
2019-04-23 15:56 METAR KEEN 231956Z AUTO 00000KT 10SM CLR 21/10 A2983 RMK AO2 SLP118 T02060100
                 PNO $ =
2019-04-23 14:56 METAR KEEN 231856Z AUTO 25003KT 10SM CLR 19/09 A2986 RMK AO2 SLP128 T01940094
                 PNO $ =

Support USWX by starting your Amazon purchase here.